Time;durP1;ratioP1;P1;durP2;ratioP2;P2;SDS_P1;SDS_P2;PMS_P1;PMS_P2;Temp;Humidity;BMP_temperature;BMP_pressure;BME280_temperature;BME280_humidity;BME280_pressure;Samples;Min_cycle;Max_cycle;Signal;HPM_P1;HPM_P2
2023/10/25 00:01:09;;;;;;;63.47;58.47;;;8.60;94.20;;;;;;5053675;28;20184;-89
2023/10/25 00:03:35;;;;;;;63.33;58.27;;;8.60;94.30;;;;;;5053170;28;20198;-89
2023/10/25 00:06:01;;;;;;;65.93;60.33;;;8.70;94.30;;;;;;5053156;28;20254;-88
2023/10/25 00:08:27;;;;;;;66.60;61.60;;;8.60;94.30;;;;;;5053236;28;20176;-90
2023/10/25 00:11:05;;;;;;;65.43;60.23;;;8.60;94.30;;;;;;5053261;28;20662;-88
2023/10/25 00:13:31;;;;;;;65.47;60.03;;;8.60;94.30;;;;;;5054657;28;20156;-89
2023/10/25 00:15:57;;;;;;;63.63;58.63;;;8.60;94.30;;;;;;5053340;28;20230;-88
2023/10/25 00:18:24;;;;;;;63.40;58.40;;;8.60;94.40;;;;;;5055028;28;20199;-89
2023/10/25 00:20:50;;;;;;;63.13;58.23;;;8.50;94.30;;;;;;5054489;28;20199;-90
2023/10/25 00:23:15;;;;;;;88.73;82.37;;;8.50;94.30;;;;;;5053492;28;20292;-89
2023/10/25 00:25:41;;;;;;;98.77;91.40;;;8.50;94.30;;;;;;5054133;28;20689;-90
2023/10/25 00:28:06;;;;;;;97.43;90.30;;;8.40;94.30;;;;;;5053941;28;20179;-88
2023/10/25 00:30:32;;;;;;;97.00;90.00;;;8.40;94.40;;;;;;5052858;28;20176;-90
2023/10/25 00:32:57;;;;;;;104.77;96.37;;;8.50;94.40;;;;;;5052844;28;20583;-90
2023/10/25 00:35:23;;;;;;;99.73;92.70;;;8.50;94.40;;;;;;5052796;28;20192;-90
2023/10/25 00:37:48;;;;;;;96.23;88.93;;;8.50;94.40;;;;;;5052881;28;20190;-89
2023/10/25 00:40:14;;;;;;;104.10;96.47;;;8.50;94.40;;;;;;5054756;28;20621;-89
2023/10/25 00:42:39;;;;;;;103.67;95.97;;;8.50;94.40;;;;;;5052640;28;20176;-89
2023/10/25 00:45:05;;;;;;;105.40;97.50;;;8.50;94.40;;;;;;5052642;28;20283;-89
2023/10/25 00:47:31;;;;;;;99.73;92.40;;;8.40;94.40;;;;;;5052516;28;20234;-89
2023/10/25 00:49:57;;;;;;;102.97;95.37;;;8.40;94.50;;;;;;5052697;28;20176;-90
2023/10/25 00:52:23;;;;;;;103.27;95.73;;;8.40;94.50;;;;;;5052629;28;20183;-90
2023/10/25 00:54:48;;;;;;;100.00;92.77;;;8.40;94.50;;;;;;5053669;28;20196;-90
2023/10/25 00:57:14;;;;;;;102.33;94.70;;;8.30;94.50;;;;;;5052796;28;20279;-89
2023/10/25 00:59:40;;;;;;;106.37;98.27;;;8.30;94.60;;;;;;5052549;28;20188;-90
2023/10/25 01:02:07;;;;;;;71.00;65.07;;;8.30;94.60;;;;;;5052720;28;20187;-90
2023/10/25 01:04:34;;;;;;;71.40;65.43;;;8.30;94.60;;;;;;5053340;28;20218;-90
2023/10/25 01:06:59;;;;;;;104.90;97.17;;;8.30;94.60;;;;;;5052119;28;20279;-89
2023/10/25 01:09:25;;;;;;;108.27;100.10;;;8.30;94.60;;;;;;5052032;28;20172;-90
2023/10/25 01:11:51;;;;;;;82.73;76.07;;;8.30;94.70;;;;;;5053390;28;20179;-90
2023/10/25 01:14:17;;;;;;;73.87;67.40;;;8.30;94.60;;;;;;5052169;28;20172;-89
2023/10/25 01:16:42;;;;;;;78.90;71.80;;;8.30;94.60;;;;;;5051981;28;20176;-90
2023/10/25 01:19:08;;;;;;;106.27;97.97;;;8.30;94.70;;;;;;5051952;28;20219;-89
2023/10/25 01:21:34;;;;;;;109.30;100.87;;;8.30;94.70;;;;;;5051975;28;20180;-89
2023/10/25 01:23:59;;;;;;;77.17;70.47;;;8.30;94.70;;;;;;5053255;28;20207;-89
2023/10/25 01:26:25;;;;;;;71.80;65.80;;;8.30;94.70;;;;;;5051780;28;20367;-89
2023/10/25 01:28:50;;;;;;;74.33;68.20;;;8.20;94.70;;;;;;5055268;28;20658;-90
2023/10/25 01:31:16;;;;;;;73.90;67.23;;;8.20;94.80;;;;;;5056175;28;20201;-89
2023/10/25 01:33:41;;;;;;;73.20;66.73;;;8.20;94.80;;;;;;5056071;28;20266;-90
2023/10/25 01:36:07;;;;;;;70.17;63.47;;;8.10;94.80;;;;;;5055898;28;20188;-90
2023/10/25 01:38:32;;;;;;;74.03;66.87;;;8.00;94.80;;;;;;5055882;28;20176;-90
2023/10/25 01:40:58;;;;;;;74.97;68.27;;;8.00;94.90;;;;;;5057037;28;20184;-90
2023/10/25 01:43:24;;;;;;;73.03;66.13;;;8.10;94.90;;;;;;5055907;28;20188;-90
2023/10/25 01:45:49;;;;;;;71.33;64.77;;;8.00;94.90;;;;;;5055661;28;20203;-89
2023/10/25 01:48:15;;;;;;;71.40;64.43;;;8.10;94.90;;;;;;5057008;28;20176;-90
2023/10/25 01:50:40;;;;;;;71.17;64.47;;;8.00;94.90;;;;;;5057252;28;20172;-90
2023/10/25 01:53:06;;;;;;;74.27;67.43;;;8.10;94.90;;;;;;5055636;28;20203;-90
2023/10/25 01:55:31;;;;;;;72.77;65.90;;;8.00;94.90;;;;;;5056428;28;20553;-90
2023/10/25 01:57:57;;;;;;;70.10;63.80;;;8.00;95.00;;;;;;5055667;28;20242;-90
2023/10/25 02:00:23;;;;;;;70.53;64.13;;;8.00;95.00;;;;;;5055504;28;20640;-90
2023/10/25 02:02:48;;;;;;;72.10;65.43;;;8.00;95.00;;;;;;5056726;28;20175;-89
2023/10/25 02:05:14;;;;;;;68.80;62.83;;;7.90;94.90;;;;;;5055225;28;20757;-90
2023/10/25 02:07:40;;;;;;;69.20;63.23;;;7.80;94.90;;;;;;5055655;28;20257;-90
2023/10/25 02:10:06;;;;;;;69.37;63.13;;;7.80;95.00;;;;;;5055343;28;20184;-89
2023/10/25 02:12:32;;;;;;;65.43;59.63;;;7.80;95.00;;;;;;5055153;28;20674;-90
2023/10/25 02:14:57;;;;;;;66.43;60.57;;;7.80;95.00;;;;;;5055177;28;20191;-89
2023/10/25 02:17:23;;;;;;;91.87;84.13;;;7.70;94.90;;;;;;5055569;28;20176;-90
2023/10/25 02:19:48;;;;;;;100.43;92.67;;;7.70;94.90;;;;;;5055140;28;20180;-89
2023/10/25 02:22:14;;;;;;;103.43;95.03;;;7.70;95.00;;;;;;5055155;28;20190;-89
2023/10/25 02:24:39;;;;;;;101.90;93.60;;;7.80;95.00;;;;;;5056232;28;20224;-89
2023/10/25 02:27:05;;;;;;;103.13;95.07;;;7.70;95.00;;;;;;5055861;28;20227;-90
2023/10/25 02:29:31;;;;;;;100.77;92.83;;;7.80;95.00;;;;;;5054912;28;20222;-90
2023/10/25 02:31:57;;;;;;;99.67;91.00;;;7.70;95.00;;;;;;5056426;28;20164;-89
2023/10/25 02:34:22;;;;;;;96.13;88.27;;;7.70;95.00;;;;;;5064541;28;20187;-92
2023/10/25 02:36:48;;;;;;;95.97;87.77;;;7.60;95.00;;;;;;5055045;28;20176;-90
2023/10/25 02:39:13;;;;;;;94.13;86.23;;;7.60;95.00;;;;;;5054355;28;20627;-90
2023/10/25 02:41:39;;;;;;;90.90;83.63;;;7.60;95.00;;;;;;5054815;28;20180;-89
2023/10/25 02:44:05;;;;;;;92.17;84.83;;;7.50;94.90;;;;;;5054733;28;20565;-89
2023/10/25 02:46:30;;;;;;;98.13;90.00;;;7.50;94.90;;;;;;5054545;28;20590;-90
2023/10/25 02:48:56;;;;;;;98.70;91.00;;;7.60;95.00;;;;;;5054780;28;20263;-89
2023/10/25 02:51:22;;;;;;;97.03;89.03;;;7.60;95.00;;;;;;5054591;28;20176;-89
2023/10/25 02:53:47;;;;;;;99.87;91.93;;;7.60;95.00;;;;;;5054600;28;20179;-90
2023/10/25 02:56:13;;;;;;;75.27;68.47;;;7.50;94.90;;;;;;5054639;28;20620;-90
2023/10/25 02:58:38;;;;;;;73.87;67.37;;;7.50;95.00;;;;;;5054507;28;20225;-89
2023/10/25 03:01:05;;;;;;;75.57;68.57;;;7.40;94.90;;;;;;5054410;28;20275;-89
2023/10/25 03:03:32;;;;;;;101.23;92.50;;;7.40;95.00;;;;;;5054559;28;20183;-89
2023/10/25 03:05:58;;;;;;;103.07;94.50;;;7.40;95.00;;;;;;5054785;28;20547;-89
2023/10/25 03:08:25;;;;;;;72.97;66.00;;;7.40;95.00;;;;;;5055296;28;20199;-89
2023/10/25 03:10:50;;;;;;;76.27;68.70;;;7.40;95.00;;;;;;5054224;28;20176;-90
2023/10/25 03:13:16;;;;;;;91.17;83.03;;;7.40;95.10;;;;;;5054336;28;20592;-89
2023/10/25 03:15:41;;;;;;;99.43;90.57;;;7.40;95.10;;;;;;5055225;28;20667;-89
2023/10/25 03:18:07;;;;;;;104.33;95.37;;;7.40;95.10;;;;;;5055291;28;20620;-89
2023/10/25 03:20:33;;;;;;;72.00;65.00;;;7.40;95.10;;;;;;5054019;28;20314;-89
2023/10/25 03:22:59;;;;;;;72.07;65.33;;;7.40;95.10;;;;;;5055144;28;20188;-89
2023/10/25 03:25:25;;;;;;;96.03;88.23;;;7.30;95.10;;;;;;5053803;28;20192;-90
2023/10/25 03:27:51;;;;;;;95.83;87.87;;;7.30;95.10;;;;;;5053892;28;20175;-90
2023/10/25 03:30:17;;;;;;;99.23;91.10;;;7.30;95.10;;;;;;5053843;28;20695;-90
2023/10/25 03:32:43;;;;;;;70.43;64.30;;;7.30;95.10;;;;;;5053900;28;20182;-89
2023/10/25 03:35:09;;;;;;;71.70;64.77;;;7.30;95.00;;;;;;5053696;28;20199;-90
2023/10/25 03:37:39;;;;;;;71.57;64.87;;;7.30;95.10;;;;;;5053597;28;20180;-90
2023/10/25 03:40:08;;;;;;;68.63;62.57;;;7.20;95.10;;;;;;5053639;28;20622;-90
2023/10/25 03:42:34;;;;;;;71.33;64.90;;;7.20;95.10;;;;;;5053571;28;20184;-89
2023/10/25 03:44:59;;;;;;;71.17;64.50;;;7.20;95.10;;;;;;5054683;28;20352;-89
2023/10/25 03:47:25;;;;;;;71.07;64.47;;;7.20;95.10;;;;;;5053532;28;20306;-90
2023/10/25 03:49:54;;;;;;;68.03;61.90;;;7.10;95.10;;;;;;5053840;28;20207;-90
2023/10/25 03:52:19;;;;;;;69.27;62.67;;;7.00;95.10;;;;;;5053368;28;20177;-90
2023/10/25 03:54:45;;;;;;;72.13;65.43;;;7.00;95.10;;;;;;5053274;28;20203;-89
2023/10/25 03:57:10;;;;;;;74.57;67.83;;;7.00;95.10;;;;;;5053221;28;20184;-89
2023/10/25 03:59:36;;;;;;;79.07;71.70;;;7.10;95.10;;;;;;5053266;28;20180;-89
2023/10/25 04:02:01;;;;;;;78.00;70.77;;;7.20;95.10;;;;;;5053169;28;20217;-89
2023/10/25 04:04:27;;;;;;;81.37;73.63;;;7.20;95.20;;;;;;5055413;28;20196;-90
2023/10/25 04:06:53;;;;;;;76.57;69.33;;;7.20;95.20;;;;;;5066372;28;20222;-92
2023/10/25 04:09:19;;;;;;;81.63;73.50;;;7.20;95.20;;;;;;5059876;28;20200;-90
2023/10/25 04:11:44;;;;;;;79.27;71.50;;;7.20;95.20;;;;;;5056479;28;20655;-91
2023/10/25 04:14:10;;;;;;;77.50;70.33;;;7.20;95.20;;;;;;5057279;28;20711;-91
2023/10/25 04:16:36;;;;;;;79.50;71.60;;;7.20;95.20;;;;;;5055455;28;20290;-90
2023/10/25 04:19:02;;;;;;;80.33;72.10;;;7.30;95.20;;;;;;5056580;28;20180;-91
2023/10/25 04:21:27;;;;;;;78.43;70.57;;;7.30;95.30;;;;;;5055021;28;20180;-90
2023/10/25 04:23:53;;;;;;;95.27;86.07;;;7.30;95.30;;;;;;5055103;28;20175;-90
2023/10/25 04:26:19;;;;;;;98.47;88.70;;;7.30;95.30;;;;;;5056744;28;20610;-90
2023/10/25 04:28:44;;;;;;;104.50;94.07;;;7.30;95.40;;;;;;5056868;28;20176;-91
2023/10/25 04:31:11;;;;;;;104.03;94.63;;;7.40;95.40;;;;;;5056745;28;20180;-92
2023/10/25 04:33:37;;;;;;;101.83;92.27;;;7.40;95.40;;;;;;5057675;28;20172;-90
2023/10/25 04:36:04;;;;;;;105.67;95.30;;;7.40;95.40;;;;;;5057071;28;20203;-90
2023/10/25 04:38:31;;;;;;;99.20;89.47;;;7.30;95.40;;;;;;5057021;28;20291;-89
2023/10/25 04:40:57;;;;;;;100.87;90.83;;;7.30;95.40;;;;;;5055952;28;20191;-91
2023/10/25 04:43:23;;;;;;;103.33;93.00;;;7.30;95.50;;;;;;5055561;28;20275;-90
2023/10/25 04:45:51;;;;;;;102.37;91.93;;;7.30;95.50;;;;;;5055139;28;20648;-91
2023/10/25 04:48:17;;;;;;;100.03;89.87;;;7.30;95.60;;;;;;5056507;28;20686;-90
2023/10/25 04:50:42;;;;;;;100.87;90.23;;;7.30;95.60;;;;;;5056243;28;20176;-90
2023/10/25 04:53:08;;;;;;;97.00;87.47;;;7.30;95.60;;;;;;5054825;28;20179;-90
2023/10/25 04:55:34;;;;;;;98.80;89.03;;;7.40;95.60;;;;;;5056430;28;20231;-91
2023/10/25 04:58:00;;;;;;;98.17;88.17;;;7.30;95.60;;;;;;5054997;28;20271;-91
2023/10/25 05:00:27;;;;;;;100.80;90.87;;;7.30;95.60;;;;;;5054307;28;20675;-90
2023/10/25 05:02:52;;;;;;;83.57;68.60;;;7.40;95.70;;;;;;5054456;28;20215;-90
2023/10/25 05:05:18;;;;;;;75.30;67.17;;;7.40;95.70;;;;;;5054155;28;20250;-90
2023/10/25 05:07:44;;;;;;;100.67;90.10;;;7.40;95.70;;;;;;5054564;28;20211;-90
2023/10/25 05:10:12;;;;;;;99.17;88.97;;;7.30;95.70;;;;;;5055738;28;20576;-90
2023/10/25 05:12:38;;;;;;;100.90;91.17;;;7.30;95.70;;;;;;5053919;28;20180;-90
2023/10/25 05:15:05;;;;;;;84.60;72.43;;;7.30;95.70;;;;;;5053892;28;20270;-90
2023/10/25 05:17:31;;;;;;;81.77;72.50;;;7.30;95.70;;;;;;5054800;28;20207;-90
2023/10/25 05:19:56;;;;;;;103.47;92.90;;;7.30;95.70;;;;;;5056088;28;20176;-90
2023/10/25 05:22:26;;;;;;;106.87;95.20;;;7.40;95.80;;;;;;5055220;28;20180;-90
2023/10/25 05:24:52;;;;;;;103.60;93.53;;;7.30;95.80;;;;;;5053404;28;20203;-90
2023/10/25 05:27:18;;;;;;;88.43;75.67;;;7.30;95.80;;;;;;5053924;28;20239;-90
2023/10/25 05:29:43;;;;;;;83.03;74.53;;;7.30;95.80;;;;;;5053897;28;20172;-90
2023/10/25 05:32:14;;;;;;;88.53;77.63;;;7.30;95.80;;;;;;5053961;28;20180;-90
2023/10/25 05:34:40;;;;;;;85.77;76.57;;;7.30;95.80;;;;;;5053833;28;20282;-91
2023/10/25 05:37:06;;;;;;;86.67;77.30;;;7.30;95.80;;;;;;5053974;28;20195;-90
2023/10/25 05:39:32;;;;;;;84.90;75.50;;;7.30;95.80;;;;;;5055497;28;20180;-90
2023/10/25 05:42:03;;;;;;;96.13;77.37;;;7.30;95.90;;;;;;5054375;28;20270;-90
2023/10/25 05:44:29;;;;;;;89.50;76.77;;;7.30;95.90;;;;;;5053950;28;20218;-90
2023/10/25 05:46:55;;;;;;;87.30;77.70;;;7.30;95.90;;;;;;5053799;28;20304;-90
2023/10/25 05:49:20;;;;;;;88.23;74.93;;;7.30;95.90;;;;;;5055679;28;20179;-90
2023/10/25 05:51:46;;;;;;;81.63;72.67;;;7.30;95.90;;;;;;5054095;28;20713;-90
2023/10/25 05:54:12;;;;;;;83.23;73.87;;;7.30;95.90;;;;;;5054218;28;20210;-90
2023/10/25 05:56:38;;;;;;;90.10;77.97;;;7.30;95.90;;;;;;5055179;28;20246;-90
2023/10/25 05:59:04;;;;;;;85.70;76.60;;;7.30;95.90;;;;;;5055612;28;20548;-91
2023/10/25 06:01:43;;;;;;;110.70;100.70;;;7.30;95.90;;;;;;5055224;28;20180;-90
2023/10/25 06:04:11;;;;;;;110.53;100.60;;;7.30;95.90;;;;;;5053876;28;20219;-90
2023/10/25 06:06:40;;;;;;;83.33;74.47;;;7.30;95.90;;;;;;5054040;28;20222;-90
2023/10/25 06:09:06;;;;;;;87.23;78.27;;;7.30;95.90;;;;;;5054181;28;20168;-90
2023/10/25 06:11:32;;;;;;;86.20;78.03;;;7.30;95.90;;;;;;5055012;28;20179;-90
2023/10/25 06:13:58;;;;;;;89.13;80.53;;;7.30;95.90;;;;;;5057280;28;20169;-90
2023/10/25 06:16:23;;;;;;;106.30;97.17;;;7.30;95.90;;;;;;5059404;28;20266;-90
2023/10/25 06:18:49;;;;;;;109.37;99.77;;;7.30;95.80;;;;;;5059242;28;20172;-90
2023/10/25 06:21:14;;;;;;;106.13;97.00;;;7.30;95.90;;;;;;5058556;28;20172;-91
2023/10/25 06:23:40;;;;;;;111.73;102.37;;;7.20;95.90;;;;;;5059199;28;20172;-90
2023/10/25 06:26:05;;;;;;;109.60;99.93;;;7.30;95.90;;;;;;5057707;28;20298;-90
2023/10/25 06:28:33;;;;;;;110.20;100.80;;;7.20;95.80;;;;;;5058884;28;20194;-90
2023/10/25 06:30:58;;;;;;;110.07;100.13;;;7.20;95.90;;;;;;5057670;28;20180;-90
2023/10/25 06:33:25;;;;;;;111.10;101.27;;;7.20;95.90;;;;;;5059083;28;20647;-91
2023/10/25 06:35:50;;;;;;;108.30;98.77;;;7.20;95.90;;;;;;5059184;28;20219;-90
2023/10/25 06:38:16;;;;;;;106.90;97.37;;;7.20;95.90;;;;;;5057960;28;20183;-90
2023/10/25 06:40:43;;;;;;;107.83;98.57;;;7.20;95.90;;;;;;5058773;28;20203;-90
2023/10/25 06:43:09;;;;;;;105.23;96.10;;;7.20;95.90;;;;;;5058024;28;20180;-90
2023/10/25 06:45:35;;;;;;;106.73;97.20;;;7.10;95.90;;;;;;5057254;28;20203;-90
2023/10/25 06:48:01;;;;;;;107.80;98.37;;;7.20;95.90;;;;;;5058950;28;20168;-90
2023/10/25 06:50:27;;;;;;;118.30;108.70;;;7.10;95.90;;;;;;5058094;28;20169;-90
2023/10/25 06:52:53;;;;;;;119.27;109.07;;;7.20;95.90;;;;;;5058513;28;20168;-90
2023/10/25 06:55:20;;;;;;;120.60;110.27;;;7.20;95.90;;;;;;5059101;28;20237;-90
2023/10/25 06:57:46;;;;;;;117.40;107.40;;;7.20;95.90;;;;;;5057023;28;20175;-90
2023/10/25 07:00:12;;;;;;;122.87;112.53;;;7.20;95.90;;;;;;5057486;28;20226;-90
2023/10/25 07:02:53;;;;;;;95.20;86.63;;;7.30;95.90;;;;;;5057058;28;20651;-90
2023/10/25 07:05:23;;;;;;;96.20;87.77;;;7.30;95.90;;;;;;5056817;28;20219;-90
2023/10/25 07:07:51;;;;;;;118.53;108.87;;;7.30;95.90;;;;;;5065287;28;20295;-91
2023/10/25 07:10:18;;;;;;;117.70;108.00;;;7.30;95.90;;;;;;5061651;28;20176;-91
2023/10/25 07:12:43;;;;;;;87.60;79.50;;;7.20;95.80;;;;;;5060441;28;20168;-89
2023/10/25 07:15:11;;;;;;;82.80;75.03;;;7.20;95.90;;;;;;5056621;28;20198;-90
2023/10/25 07:17:37;;;;;;;86.70;78.47;;;7.20;95.90;;;;;;5058936;28;20172;-90
2023/10/25 07:20:04;;;;;;;109.90;100.67;;;7.20;95.90;;;;;;5057551;28;20258;-89
2023/10/25 07:22:30;;;;;;;118.77;109.03;;;7.20;95.90;;;;;;5058613;28;20180;-90
2023/10/25 07:24:55;;;;;;;88.70;80.83;;;7.30;95.90;;;;;;5054668;28;20249;-90
2023/10/25 07:27:21;;;;;;;87.70;80.07;;;7.30;95.90;;;;;;5057085;28;20250;-90
2023/10/25 07:29:48;;;;;;;91.57;83.23;;;7.30;95.90;;;;;;5057638;28;20219;-90
2023/10/25 07:32:13;;;;;;;92.13;83.13;;;7.40;95.90;;;;;;5056323;28;20187;-90
2023/10/25 07:34:40;;;;;;;91.10;82.77;;;7.50;95.90;;;;;;5055375;28;20192;-90
2023/10/25 07:37:05;;;;;;;87.70;79.87;;;7.50;95.90;;;;;;5056535;28;20211;-89
2023/10/25 07:39:31;;;;;;;88.47;80.13;;;7.50;95.90;;;;;;5056872;28;20580;-90
2023/10/25 07:41:56;;;;;;;90.50;81.93;;;7.50;95.90;;;;;;5055057;28;20184;-89
2023/10/25 07:44:22;;;;;;;88.60;80.53;;;7.60;95.90;;;;;;5055668;28;20710;-89
2023/10/25 07:46:48;;;;;;;84.87;76.70;;;7.70;96.00;;;;;;5055206;28;20210;-90
2023/10/25 07:49:13;;;;;;;88.07;79.43;;;7.70;96.00;;;;;;5055029;28;20180;-89
2023/10/25 07:51:39;;;;;;;83.60;75.80;;;7.80;96.00;;;;;;5055399;28;20271;-90
2023/10/25 07:54:04;;;;;;;84.77;76.93;;;7.80;96.00;;;;;;5054961;28;20258;-90
2023/10/25 07:56:30;;;;;;;84.40;76.60;;;7.80;95.90;;;;;;5055419;28;20208;-90
2023/10/25 07:58:56;;;;;;;85.27;77.43;;;8.00;96.00;;;;;;5055397;28;20191;-90
2023/10/25 08:01:21;;;;;;;86.13;77.90;;;8.00;96.00;;;;;;5055757;28;20180;-90
2023/10/25 08:03:46;;;;;;;82.07;74.27;;;8.10;96.00;;;;;;5054937;28;20188;-90
2023/10/25 08:06:13;;;;;;;87.40;78.97;;;8.20;96.10;;;;;;5056061;28;20235;-89
2023/10/25 08:08:39;;;;;;;82.83;75.23;;;8.30;96.10;;;;;;5055020;28;20221;-89
2023/10/25 08:11:05;;;;;;;84.17;76.13;;;8.30;96.00;;;;;;5054794;28;20175;-90
2023/10/25 08:13:33;;;;;;;86.13;77.40;;;8.40;96.10;;;;;;5055420;28;20184;-90
2023/10/25 08:16:02;;;;;;;81.23;73.97;;;8.40;96.10;;;;;;5054525;28;20199;-89
2023/10/25 08:18:30;;;;;;;110.63;101.33;;;8.50;96.10;;;;;;5057100;28;20230;-90
2023/10/25 08:20:56;;;;;;;106.17;97.00;;;8.50;96.10;;;;;;5055702;28;20546;-90
2023/10/25 08:23:22;;;;;;;102.50;93.23;;;8.70;96.20;;;;;;5053787;28;20176;-89
2023/10/25 08:25:47;;;;;;;104.13;94.67;;;8.70;96.10;;;;;;5053264;28;20204;-90
2023/10/25 08:28:14;;;;;;;102.57;93.70;;;8.80;96.10;;;;;;5057682;28;20183;-91
2023/10/25 08:30:39;;;;;;;99.10;90.30;;;8.80;96.10;;;;;;5059696;28;20184;-89
2023/10/25 08:33:05;;;;;;;102.37;93.87;;;8.90;96.10;;;;;;5055975;28;20694;-90
2023/10/25 08:35:30;;;;;;;100.67;92.10;;;8.90;96.00;;;;;;5056637;28;20806;-90
2023/10/25 08:37:56;;;;;;;99.07;90.50;;;8.90;96.00;;;;;;5053669;28;20176;-90
2023/10/25 08:40:24;;;;;;;95.00;86.70;;;9.00;96.00;;;;;;5053378;28;20180;-90
2023/10/25 08:42:50;;;;;;;98.03;89.73;;;9.10;96.00;;;;;;5053474;28;20271;-90
2023/10/25 08:45:16;;;;;;;94.27;86.57;;;9.20;96.00;;;;;;5053063;28;20241;-90
2023/10/25 08:47:43;;;;;;;96.20;87.50;;;9.20;96.00;;;;;;5053343;28;20227;-90
2023/10/25 08:50:09;;;;;;;96.43;87.93;;;9.30;95.90;;;;;;5053105;28;20258;-90
2023/10/25 08:52:39;;;;;;;96.93;88.60;;;9.30;95.90;;;;;;5053344;28;20533;-89
2023/10/25 08:55:11;;;;;;;78.97;71.57;;;9.50;95.90;;;;;;5054305;28;20279;-90
2023/10/25 08:57:38;;;;;;;87.93;80.00;;;9.50;95.80;;;;;;5053752;28;20909;-90
2023/10/25 09:00:07;;;;;;;110.63;101.30;;;9.60;95.80;;;;;;5054195;28;20168;-89
2023/10/25 09:02:36;;;;;;;118.13;108.80;;;9.70;95.80;;;;;;5055412;28;20647;-90
2023/10/25 09:05:03;;;;;;;89.93;82.53;;;9.80;95.80;;;;;;5054898;28;20581;-90
2023/10/25 09:07:34;;;;;;;92.70;85.30;;;9.80;95.70;;;;;;5054093;28;20663;-90
2023/10/25 09:10:01;;;;;;;98.27;90.30;;;9.80;95.50;;;;;;5054727;28;20528;-91
2023/10/25 09:12:27;;;;;;;97.87;90.30;;;9.90;95.40;;;;;;5052995;28;20614;-91
2023/10/25 09:14:52;;;;;;;98.63;90.63;;;10.00;95.40;;;;;;5055270;28;20199;-91
2023/10/25 09:17:18;;;;;;;106.67;98.27;;;10.10;95.30;;;;;;5072277;28;20198;-92
2023/10/25 09:19:44;;;;;;;102.60;94.67;;;10.20;95.20;;;;;;5065981;28;20195;-92
2023/10/25 09:22:23;;;;;;;105.00;96.53;;;10.30;95.10;;;;;;5069105;28;20188;-92
2023/10/25 09:24:49;;;;;;;106.90;98.37;;;10.30;95.00;;;;;;5057866;28;20199;-89
2023/10/25 09:27:14;;;;;;;119.27;110.37;;;10.50;94.90;;;;;;5053945;28;20212;-89
2023/10/25 09:29:40;;;;;;;113.77;105.57;;;10.50;94.80;;;;;;5058154;28;20258;-92
2023/10/25 09:32:07;;;;;;;105.50;97.37;;;10.60;94.80;;;;;;5061560;28;20184;-90
2023/10/25 09:34:37;;;;;;;83.63;76.90;;;10.60;94.60;;;;;;5055662;28;20205;-92
2023/10/25 09:37:09;;;;;;;85.03;78.17;;;10.60;94.40;;;;;;5073976;28;20164;-89
2023/10/25 09:39:38;;;;;;;89.13;82.40;;;10.80;94.40;;;;;;5060396;28;20158;-91
2023/10/25 09:42:15;;;;;;;85.43;78.90;;;10.90;94.30;;;;;;5056064;28;20717;-90
2023/10/25 09:44:47;;;;;;;75.40;69.57;;;11.00;94.10;;;;;;5055366;28;20197;-91
2023/10/25 09:47:15;;;;;;;81.63;75.43;;;11.10;93.90;;;;;;5058065;28;20204;-91
2023/10/25 09:49:43;;;;;;;80.83;75.00;;;11.20;93.90;;;;;;5064774;28;20202;-91
2023/10/25 09:52:18;;;;;;;75.87;70.37;;;11.30;93.70;;;;;;5062686;28;20179;-90
2023/10/25 09:55:05;;;;;;;73.20;67.70;;;11.30;93.40;;;;;;5064491;28;20195;-91
2023/10/25 09:57:32;;;;;;;74.13;68.70;;;11.40;93.10;;;;;;5066094;28;20164;-90
2023/10/25 10:00:00;;;;;;;68.57;63.17;;;11.50;93.00;;;;;;5065220;28;20252;-89
2023/10/25 10:02:36;;;;;;;71.83;66.07;;;11.50;92.60;;;;;;5056903;28;20172;-91
2023/10/25 10:05:10;;;;;;;73.00;67.33;;;11.60;92.50;;;;;;5055533;28;20215;-89
2023/10/25 10:07:57;;;;;;;60.43;55.80;;;11.90;92.60;;;;;;5056667;28;20222;-88
2023/10/25 10:10:57;;;;;;;100.03;93.20;;;11.90;92.30;;;;;;5055328;28;20176;-89
2023/10/25 10:13:23;;;;;;;103.97;96.63;;;11.80;91.60;;;;;;5033799;28;20211;-89
2023/10/25 10:16:04;;;;;;;93.80;87.17;;;12.00;91.80;;;;;;5056430;28;20195;-89
2023/10/25 10:18:47;;;;;;;99.33;92.37;;;12.10;91.50;;;;;;5056404;28;20155;-89
2023/10/25 10:21:14;;;;;;;100.07;93.20;;;12.20;91.40;;;;;;5057616;28;20191;-90
2023/10/25 10:23:45;;;;;;;99.80;92.67;;;12.30;91.10;;;;;;5059463;28;20184;-91
2023/10/25 10:26:12;;;;;;;66.30;61.03;;;12.20;90.70;;;;;;5062873;28;20604;-90
2023/10/25 10:28:43;;;;;;;64.43;59.33;;;12.40;90.80;;;;;;5058933;28;20172;-91
2023/10/25 10:31:10;;;;;;;62.53;57.73;;;12.50;90.40;;;;;;5055993;28;20160;-90
2023/10/25 10:33:47;;;;;;;63.43;58.57;;;12.50;90.30;;;;;;5055321;28;20666;-91
2023/10/25 10:36:24;;;;;;;84.60;78.70;;;12.30;89.20;;;;;;5055289;28;20196;-90
2023/10/25 10:39:10;;;;;;;78.83;73.37;;;12.30;89.60;;;;;;5055421;28;20175;-89
2023/10/25 10:41:36;;;;;;;55.20;50.57;;;12.30;89.20;;;;;;5054857;28;20171;-89
2023/10/25 10:44:01;;;;;;;46.37;42.63;;;12.40;89.10;;;;;;5054924;28;20609;-87
2023/10/25 10:46:30;;;;;;;86.10;79.70;;;12.40;89.00;;;;;;5055095;28;20318;-91
2023/10/25 10:49:01;;;;;;;81.53;75.57;;;12.50;89.10;;;;;;5055302;28;20179;-90
2023/10/25 10:51:27;;;;;;;53.80;49.23;;;12.50;89.20;;;;;;5056152;28;20160;-89
2023/10/25 10:53:53;;;;;;;54.80;50.70;;;12.70;89.40;;;;;;5054501;28;20721;-89
2023/10/25 10:56:19;;;;;;;55.07;50.60;;;12.70;89.20;;;;;;5054440;28;20199;-89
2023/10/25 10:58:45;;;;;;;75.93;70.60;;;12.70;88.90;;;;;;5055200;28;20225;-90
2023/10/25 11:01:11;;;;;;;71.83;66.97;;;12.80;89.00;;;;;;5054539;28;20267;-89
2023/10/25 11:03:37;;;;;;;45.77;41.93;;;12.70;88.40;;;;;;5054181;28;20615;-89
2023/10/25 11:06:08;;;;;;;43.27;39.77;;;12.70;88.20;;;;;;5056936;28;20208;-89
2023/10/25 11:08:33;;;;;;;42.33;38.50;;;12.70;88.20;;;;;;5054477;28;20168;-89
2023/10/25 11:11:00;;;;;;;48.33;44.50;;;12.70;87.90;;;;;;5054760;28;20580;-90
2023/10/25 11:13:25;;;;;;;43.33;39.83;;;12.80;88.10;;;;;;5054205;28;20203;-89
2023/10/25 11:16:01;;;;;;;45.00;40.93;;;12.80;88.00;;;;;;5054170;28;20223;-89
2023/10/25 11:18:27;;;;;;;45.63;41.43;;;12.80;87.80;;;;;;5054399;28;20175;-90
2023/10/25 11:20:53;;;;;;;45.00;41.40;;;12.80;88.10;;;;;;5055330;28;20238;-90
2023/10/25 11:23:18;;;;;;;42.17;38.97;;;12.80;88.10;;;;;;5055208;28;20218;-90
2023/10/25 11:25:45;;;;;;;46.57;42.57;;;12.80;87.90;;;;;;5206958;22;20231;-90
2023/10/25 11:28:11;;;;;;;57.80;53.23;;;12.80;87.80;;;;;;5074669;28;20172;-90
2023/10/25 11:30:38;;;;;;;49.60;45.77;;;12.80;87.90;;;;;;5073947;28;20179;-89
2023/10/25 11:33:09;;;;;;;50.80;46.50;;;12.80;87.80;;;;;;5074224;28;20176;-89
2023/10/25 11:35:36;;;;;;;50.80;46.60;;;12.80;87.80;;;;;;5073563;28;20464;-89
2023/10/25 11:38:02;;;;;;;49.93;45.97;;;12.80;87.80;;;;;;5073708;28;20186;-89
2023/10/25 11:40:47;;;;;;;53.13;48.87;;;12.80;88.00;;;;;;5073766;28;20171;-89
2023/10/25 11:43:13;;;;;;;48.70;45.00;;;12.90;87.80;;;;;;5073729;28;20308;-89
2023/10/25 11:45:40;;;;;;;45.20;41.72;;;12.90;87.60;;;;;;5073117;28;20402;-89
2023/10/25 11:48:07;;;;;;;43.03;39.20;;;13.00;87.60;;;;;;5073582;28;20199;-89
2023/10/25 11:50:33;;;;;;;39.17;35.53;;;13.20;87.00;;;;;;5074699;28;20581;-89
2023/10/25 11:52:58;;;;;;;36.40;33.30;;;13.20;86.20;;;;;;5073447;28;20318;-89
2023/10/25 11:55:25;;;;;;;38.37;35.10;;;13.30;85.30;;;;;;5073635;28;20277;-90
2023/10/25 11:57:51;;;;;;;34.40;31.60;;;13.30;85.30;;;;;;5073241;28;20190;-90
2023/10/25 12:00:17;;;;;;;37.67;34.40;;;13.40;84.90;;;;;;5074417;28;20168;-90
2023/10/25 12:02:43;;;;;;;37.73;34.07;;;13.60;84.80;;;;;;5073190;28;20266;-90
2023/10/25 12:05:09;;;;;;;38.30;34.83;;;13.70;84.90;;;;;;5073159;28;20192;-90
2023/10/25 12:07:35;;;;;;;33.77;30.73;;;13.80;85.10;;;;;;5073190;28;20263;-89
2023/10/25 12:10:01;;;;;;;34.57;31.13;;;13.90;84.40;;;;;;5074547;28;20175;-89
2023/10/25 12:12:26;;;;;;;32.03;28.98;;;14.00;84.10;;;;;;5072661;28;20258;-90
2023/10/25 12:14:52;;;;;;;32.53;29.70;;;14.20;84.20;;;;;;5074269;28;20206;-92
2023/10/25 12:17:18;;;;;;;31.00;28.30;;;14.30;83.70;;;;;;5073272;28;20168;-91
2023/10/25 12:19:44;;;;;;;30.17;27.02;;;14.40;83.60;;;;;;5073213;28;20264;-91
2023/10/25 12:22:13;;;;;;;32.53;29.27;;;14.40;82.80;;;;;;5073009;28;20673;-91
2023/10/25 12:24:40;;;;;;;49.90;45.63;;;14.20;82.00;;;;;;5072920;28;20195;-92
2023/10/25 12:27:07;;;;;;;48.38;44.47;;;14.30;82.80;;;;;;5072689;28;20203;-91
2023/10/25 12:29:33;;;;;;;50.92;47.03;;;14.30;82.50;;;;;;5073164;28;20254;-91